Terminal Aerodrome Forecast
Issued by NWS Flagstaff, AZ

Home | Current Version | Previous Version | Text Only | Print | Product List | Glossary On
Versions: 1 2 3 4 5 6 7 8 9 10 11 12 13 14 15 16
000
FTUS45 KFGZ 190500 AAB
TAFINW
TAF AMD
KINW 190508Z 1905/1924 VRB06KT P6SM VCSH BKN070 OVC100
      TEMPO 1905/1906 VRB15G30KT -SHRA BKN060 OVC080
     FM190600 19011KT P6SM BKN080
     FM191900 23012G20KT P6SM SCT070 BKN100=

USA.gov is the U.S. government's official web portal to all federal, state and local government web resources and services.